Time;durP1;ratioP1;P1;durP2;ratioP2;P2;SDS_P1;SDS_P2;PMS_P1;PMS_P2;Temp;Humidity;BMP_temperature;BMP_pressure;BME280_temperature;BME280_humidity;BME280_pressure;Samples;Min_cycle;Max_cycle;Signal;HPM_P1;HPM_P2
2023/08/06 00:00:24;;;;;;;4.78;1.55;;;15.80;99.90;;;;;;5115766;28;20227;-47
2023/08/06 00:02:50;;;;;;;2.42;1.70;;;15.70;99.90;;;;;;5115884;28;20180;-47
2023/08/06 00:05:17;;;;;;;3.80;1.77;;;15.80;99.90;;;;;;5115802;28;20568;-49
2023/08/06 00:07:45;;;;;;;3.35;1.58;;;15.80;99.90;;;;;;5115533;28;20182;-50
2023/08/06 00:10:11;;;;;;;4.18;1.80;;;15.80;99.90;;;;;;5115509;28;20185;-52
2023/08/06 00:12:36;;;;;;;3.65;1.67;;;15.80;99.90;;;;;;5115419;28;20173;-51
2023/08/06 00:15:02;;;;;;;2.63;1.75;;;15.90;99.90;;;;;;5115190;28;20170;-48
2023/08/06 00:17:28;;;;;;;2.55;1.60;;;15.90;99.90;;;;;;5115338;28;20207;-51
2023/08/06 00:19:53;;;;;;;2.20;1.58;;;15.90;99.90;;;;;;5115773;28;20224;-47
2023/08/06 00:22:19;;;;;;;4.05;2.03;;;16.00;99.90;;;;;;5115527;28;20169;-52
2023/08/06 00:24:45;;;;;;;3.70;2.28;;;16.00;99.90;;;;;;5115254;28;20173;-52
2023/08/06 00:27:10;;;;;;;4.22;2.13;;;15.90;99.90;;;;;;5114643;28;20313;-47
2023/08/06 00:29:36;;;;;;;3.03;2.10;;;16.00;99.90;;;;;;5115170;28;20294;-49
2023/08/06 00:32:02;;;;;;;2.78;2.38;;;16.00;99.90;;;;;;5115147;28;20724;-47
2023/08/06 00:34:27;;;;;;;4.65;2.40;;;15.90;99.90;;;;;;5115613;28;20201;-50
2023/08/06 00:36:54;;;;;;;3.35;2.35;;;15.90;99.90;;;;;;5114893;28;20205;-49
2023/08/06 00:39:19;;;;;;;3.63;2.30;;;15.90;99.90;;;;;;5114844;28;20512;-52
2023/08/06 00:41:45;;;;;;;3.97;2.40;;;16.00;99.90;;;;;;5114820;28;20169;-50
2023/08/06 00:44:10;;;;;;;5.85;2.70;;;16.00;99.90;;;;;;5114645;28;20634;-51
2023/08/06 00:46:36;;;;;;;2.40;2.10;;;16.00;99.90;;;;;;5114840;28;20173;-51
2023/08/06 00:49:02;;;;;;;5.95;2.50;;;16.00;99.90;;;;;;5114809;28;20244;-50
2023/08/06 00:51:28;;;;;;;3.47;2.33;;;16.00;99.90;;;;;;5114784;28;20170;-50
2023/08/06 00:53:54;;;;;;;4.43;3.00;;;15.90;99.90;;;;;;5114778;28;20208;-47
2023/08/06 00:56:20;;;;;;;6.05;2.63;;;16.00;99.90;;;;;;5114613;28;20733;-50
2023/08/06 00:58:46;;;;;;;3.80;2.70;;;16.10;99.90;;;;;;5114629;28;20205;-51
2023/08/06 01:01:12;;;;;;;3.58;2.72;;;16.00;99.90;;;;;;5114542;28;20572;-51
2023/08/06 01:03:38;;;;;;;5.70;2.72;;;16.10;99.90;;;;;;5113316;28;20242;-48
2023/08/06 01:06:05;;;;;;;4.38;2.80;;;16.00;99.90;;;;;;5114523;28;20173;-50
2023/08/06 01:08:58;;;;;;;7.13;3.38;;;16.00;99.90;;;;;;5114493;28;20489;-48
2023/08/06 01:12:09;;;;;;;3.97;2.60;;;16.00;99.90;;;;;;5114526;28;20222;-48
2023/08/06 01:14:50;;;;;;;5.57;3.20;;;15.90;99.90;;;;;;5114143;28;20163;-48
2023/08/06 01:17:16;;;;;;;5.38;3.00;;;16.00;99.90;;;;;;5114319;28;20192;-51
2023/08/06 01:19:42;;;;;;;3.78;3.00;;;16.00;99.90;;;;;;5114370;28;20314;-50
2023/08/06 01:22:07;;;;;;;6.10;2.97;;;16.00;99.90;;;;;;5114386;28;20185;-52
2023/08/06 01:24:33;;;;;;;4.90;3.10;;;16.00;99.90;;;;;;5113944;28;20204;-52
2023/08/06 01:27:38;;;;;;;3.60;2.75;;;15.90;99.90;;;;;;5114073;28;20181;-49
2023/08/06 01:30:13;;;;;;;4.13;2.80;;;16.00;99.90;;;;;;5107765;28;20718;-51
2023/08/06 01:32:44;;;;;;;4.18;3.00;;;15.80;99.90;;;;;;5114129;28;20617;-51
2023/08/06 01:35:11;;;;;;;4.18;3.35;;;15.70;99.90;;;;;;5113876;28;20164;-49
2023/08/06 01:37:38;;;;;;;6.45;4.63;;;15.80;99.90;;;;;;5113591;28;20193;-49
2023/08/06 01:40:11;;;;;;;5.55;4.10;;;15.90;99.90;;;;;;5113860;28;20180;-52
2023/08/06 01:42:37;;;;;;;5.38;3.85;;;16.00;99.90;;;;;;5113983;28;20173;-48
2023/08/06 01:45:03;;;;;;;4.45;3.80;;;15.90;99.90;;;;;;5114001;28;20314;-52
2023/08/06 01:47:29;;;;;;;4.20;3.75;;;15.90;99.90;;;;;;5113981;28;20638;-49
2023/08/06 01:49:55;;;;;;;4.72;3.97;;;15.90;99.90;;;;;;5113955;28;20256;-48
2023/08/06 01:52:20;;;;;;;4.22;3.80;;;15.80;99.90;;;;;;5113938;28;20181;-48
2023/08/06 01:54:46;;;;;;;4.50;4.10;;;15.90;99.90;;;;;;5113860;28;20187;-49
2023/08/06 01:57:12;;;;;;;5.80;4.60;;;16.00;99.90;;;;;;5113732;28;20197;-50
2023/08/06 01:59:37;;;;;;;5.07;4.30;;;16.00;99.90;;;;;;5113848;28;20174;-48
2023/08/06 02:02:03;;;;;;;5.32;4.47;;;16.00;99.90;;;;;;5113838;28;20532;-50
2023/08/06 02:04:29;;;;;;;5.60;5.10;;;15.90;99.90;;;;;;5113839;28;20680;-51
2023/08/06 02:06:54;;;;;;;6.38;4.80;;;15.90;99.90;;;;;;5112843;28;20541;-48
2023/08/06 02:09:20;;;;;;;5.47;4.97;;;15.90;99.90;;;;;;5113922;28;20169;-52
2023/08/06 02:11:46;;;;;;;6.07;5.15;;;15.90;99.90;;;;;;5113730;28;20546;-48
2023/08/06 02:14:11;;;;;;;6.07;5.47;;;16.00;99.90;;;;;;5113415;28;20169;-52
2023/08/06 02:16:37;;;;;;;6.13;5.25;;;15.90;99.90;;;;;;5113788;28;20205;-51
2023/08/06 02:19:03;;;;;;;7.68;4.95;;;15.80;99.90;;;;;;5113417;28;20737;-49
2023/08/06 02:21:29;;;;;;;5.82;5.30;;;15.80;99.90;;;;;;5113632;28;20184;-52
2023/08/06 02:23:54;;;;;;;5.55;5.05;;;15.80;99.90;;;;;;5113653;28;20180;-50
2023/08/06 02:26:20;;;;;;;5.68;5.18;;;15.80;99.90;;;;;;5113305;28;20268;-48
2023/08/06 02:28:46;;;;;;;5.85;5.00;;;15.90;99.90;;;;;;5113535;28;20618;-49
2023/08/06 02:31:11;;;;;;;6.75;4.90;;;15.70;99.90;;;;;;5113550;28;20176;-47
2023/08/06 02:33:37;;;;;;;6.57;5.30;;;15.80;99.90;;;;;;5113564;28;20646;-48
2023/08/06 02:36:04;;;;;;;9.13;5.07;;;15.80;99.90;;;;;;5113285;28;20170;-52
2023/08/06 02:38:30;;;;;;;7.10;6.18;;;15.80;99.90;;;;;;5112312;28;20185;-50
2023/08/06 02:40:56;;;;;;;7.05;5.78;;;15.80;99.90;;;;;;5113477;28;20169;-48
2023/08/06 02:43:21;;;;;;;8.55;6.15;;;15.80;99.90;;;;;;5113420;28;20183;-47
2023/08/06 02:45:47;;;;;;;5.70;5.13;;;15.90;99.90;;;;;;5113408;28;20170;-49
2023/08/06 02:48:13;;;;;;;8.45;6.65;;;15.90;99.90;;;;;;5113416;28;20630;-53
2023/08/06 02:50:41;;;;;;;7.57;6.75;;;16.00;99.90;;;;;;5116209;28;20179;-48
2023/08/06 02:53:08;;;;;;;8.63;6.82;;;16.10;99.90;;;;;;5117092;28;20165;-49
2023/08/06 02:55:35;;;;;;;7.72;6.93;;;16.10;99.90;;;;;;5117067;28;20177;-51
2023/08/06 02:58:01;;;;;;;9.85;6.15;;;16.00;99.90;;;;;;5116631;28;20638;-49
2023/08/06 03:00:27;;;;;;;6.85;5.32;;;15.90;99.90;;;;;;5116965;28;20165;-52
2023/08/06 03:02:53;;;;;;;6.18;5.57;;;15.80;99.90;;;;;;5116699;28;20170;-48
2023/08/06 03:05:19;;;;;;;6.65;5.53;;;15.80;99.90;;;;;;5115630;28;20577;-47
2023/08/06 03:07:44;;;;;;;5.60;5.10;;;15.70;99.90;;;;;;5116592;28;20322;-48
2023/08/06 03:10:10;;;;;;;5.32;4.72;;;15.70;99.90;;;;;;5116784;28;20201;-52
2023/08/06 03:12:36;;;;;;;5.10;4.60;;;15.70;99.90;;;;;;5116666;28;20193;-47
2023/08/06 03:15:02;;;;;;;4.97;4.57;;;15.70;99.90;;;;;;5116399;28;20184;-48
2023/08/06 03:17:27;;;;;;;4.72;4.32;;;15.60;99.90;;;;;;5116710;28;20220;-51
2023/08/06 03:19:53;;;;;;;4.68;3.45;;;15.60;99.90;;;;;;5116619;28;20696;-48
2023/08/06 03:22:19;;;;;;;3.13;2.80;;;15.60;99.90;;;;;;5116253;28;20652;-50
2023/08/06 03:24:44;;;;;;;4.82;2.67;;;15.60;99.90;;;;;;5116158;28;20555;-50
2023/08/06 03:27:10;;;;;;;2.90;2.60;;;15.50;99.90;;;;;;5116168;28;20211;-52
2023/08/06 03:29:35;;;;;;;3.88;2.50;;;15.40;99.90;;;;;;5116436;28;20173;-52
2023/08/06 03:32:01;;;;;;;3.35;3.05;;;15.30;99.90;;;;;;5116386;28;20177;-51
2023/08/06 03:34:28;;;;;;;3.30;3.00;;;15.20;99.90;;;;;;5116309;28;20169;-52
2023/08/06 03:36:53;;;;;;;2.90;2.70;;;15.10;99.90;;;;;;5116108;28;20205;-51
2023/08/06 03:39:19;;;;;;;3.03;2.40;;;15.10;99.90;;;;;;5116224;28;20173;-51
2023/08/06 03:41:44;;;;;;;4.80;2.10;;;15.20;99.90;;;;;;5116173;28;20177;-49
2023/08/06 03:44:10;;;;;;;4.28;2.42;;;15.10;99.90;;;;;;5115846;28;20535;-47
2023/08/06 03:46:35;;;;;;;3.00;2.28;;;15.10;99.90;;;;;;5116063;28;20192;-48
2023/08/06 03:49:01;;;;;;;2.38;2.22;;;15.10;99.90;;;;;;5115982;28;20177;-52
2023/08/06 03:51:27;;;;;;;3.88;2.00;;;15.10;99.90;;;;;;5116057;28;20181;-52
2023/08/06 03:53:52;;;;;;;3.08;2.10;;;15.00;99.90;;;;;;5115911;28;20260;-51
2023/08/06 03:56:18;;;;;;;5.57;2.30;;;14.90;99.90;;;;;;5115513;28;20205;-49
2023/08/06 03:58:44;;;;;;;5.38;2.35;;;14.70;99.90;;;;;;5115822;28;20648;-49
2023/08/06 04:01:09;;;;;;;7.85;2.88;;;14.70;99.90;;;;;;5115292;28;20173;-50
2023/08/06 04:03:35;;;;;;;7.10;3.70;;;14.70;99.90;;;;;;5115420;28;20174;-48
2023/08/06 04:06:03;;;;;;;4.82;3.22;;;14.60;99.90;;;;;;5115451;28;20170;-52
2023/08/06 04:08:28;;;;;;;5.03;2.97;;;14.50;99.90;;;;;;5115326;28;20169;-47
2023/08/06 04:10:54;;;;;;;5.60;3.05;;;14.30;99.90;;;;;;5115578;28;20184;-52
2023/08/06 04:13:20;;;;;;;6.22;3.03;;;14.10;99.90;;;;;;5115525;28;20256;-49
2023/08/06 04:15:46;;;;;;;5.25;3.10;;;14.10;99.90;;;;;;5115481;28;20173;-48
2023/08/06 04:18:11;;;;;;;6.07;3.45;;;14.00;99.90;;;;;;5115287;28;20623;-50
2023/08/06 04:20:49;;;;;;;4.60;3.55;;;13.90;99.90;;;;;;5115541;28;20308;-49
2023/08/06 04:23:14;;;;;;;10.00;4.20;;;13.90;99.90;;;;;;5115287;28;20225;-47
2023/08/06 04:25:40;;;;;;;7.03;4.20;;;13.80;99.90;;;;;;5114987;28;20178;-48
2023/08/06 04:28:06;;;;;;;9.50;4.82;;;13.80;99.90;;;;;;5115228;28;20263;-47
2023/08/06 04:30:32;;;;;;;9.23;4.80;;;13.80;99.90;;;;;;5115218;28;20177;-47
2023/08/06 04:32:58;;;;;;;9.15;4.90;;;13.80;99.90;;;;;;5115145;28;20178;-47
2023/08/06 04:35:23;;;;;;;9.10;4.47;;;13.80;99.90;;;;;;5115125;28;20169;-48
2023/08/06 04:37:49;;;;;;;7.95;4.80;;;13.80;99.90;;;;;;5114963;28;20685;-48
2023/08/06 04:40:15;;;;;;;8.70;4.93;;;13.80;99.90;;;;;;5114958;27;20177;-48
2023/08/06 04:42:40;;;;;;;8.32;5.13;;;13.80;99.90;;;;;;5114696;28;20699;-47
2023/08/06 04:45:07;;;;;;;10.38;5.28;;;13.90;99.90;;;;;;5114670;28;20173;-48
2023/08/06 04:47:32;;;;;;;10.40;5.45;;;13.90;99.90;;;;;;5114555;28;20638;-49
2023/08/06 04:49:58;;;;;;;8.77;5.25;;;14.00;99.90;;;;;;5115087;28;20173;-46
2023/08/06 04:52:27;;;;;;;11.32;5.38;;;14.00;99.90;;;;;;5114511;28;20234;-50
2023/08/06 04:54:53;;;;;;;11.02;5.43;;;14.10;99.90;;;;;;5114694;28;20170;-48
2023/08/06 04:57:18;;;;;;;9.60;5.03;;;14.10;99.90;;;;;;5114797;28;20595;-48
2023/08/06 04:59:44;;;;;;;10.85;5.40;;;14.10;99.90;;;;;;5114672;28;20626;-49
2023/08/06 05:02:09;;;;;;;10.75;5.68;;;14.20;99.90;;;;;;5114639;28;20185;-50
2023/08/06 05:04:35;;;;;;;9.30;5.28;;;14.30;99.90;;;;;;5114262;28;20343;-51
2023/08/06 05:07:01;;;;;;;9.98;4.95;;;14.30;99.90;;;;;;5114791;28;20179;-50
2023/08/06 05:09:26;;;;;;;10.15;4.63;;;14.30;99.90;;;;;;5114498;28;20173;-48
2023/08/06 05:11:52;;;;;;;7.65;4.60;;;14.40;99.90;;;;;;5114427;28;20177;-47
2023/08/06 05:14:17;;;;;;;10.55;4.90;;;14.40;99.90;;;;;;5113482;28;20503;-47
2023/08/06 05:16:43;;;;;;;9.25;4.35;;;14.40;99.90;;;;;;5114314;28;20200;-48
2023/08/06 05:19:09;;;;;;;8.00;3.92;;;14.40;99.90;;;;;;5113959;28;20225;-51
2023/08/06 05:21:34;;;;;;;7.85;4.07;;;14.40;99.90;;;;;;5114556;28;20200;-48
2023/08/06 05:24:00;;;;;;;9.60;4.18;;;14.40;99.90;;;;;;5114218;28;20653;-48
2023/08/06 05:26:25;;;;;;;8.85;4.20;;;14.50;99.90;;;;;;5114253;28;20192;-48
2023/08/06 05:28:51;;;;;;;7.05;3.95;;;14.60;99.90;;;;;;5113915;28;20181;-48
2023/08/06 05:31:17;;;;;;;8.00;3.90;;;14.60;99.90;;;;;;5114147;28;20177;-48
2023/08/06 05:33:42;;;;;;;6.75;3.90;;;14.60;99.90;;;;;;5114374;28;20177;-47
2023/08/06 05:36:08;;;;;;;8.80;3.45;;;14.50;99.90;;;;;;5113994;28;20173;-48
2023/08/06 05:38:33;;;;;;;6.88;3.28;;;14.40;99.90;;;;;;5114093;28;20173;-50
2023/08/06 05:40:59;;;;;;;5.95;3.63;;;14.40;99.90;;;;;;5113317;28;20540;-50
2023/08/06 05:43:25;;;;;;;7.28;4.13;;;14.30;99.90;;;;;;5113839;28;20166;-47
2023/08/06 05:45:50;;;;;;;7.10;3.60;;;14.40;99.90;;;;;;5112795;28;20264;-47
2023/08/06 05:48:16;;;;;;;7.57;3.60;;;14.40;99.90;;;;;;5113186;28;20431;-48
2023/08/06 05:50:42;;;;;;;7.38;3.70;;;14.40;99.90;;;;;;5113540;28;20591;-49
2023/08/06 05:53:08;;;;;;;7.35;3.55;;;14.40;99.90;;;;;;5113474;28;20181;-51
2023/08/06 05:55:34;;;;;;;6.57;3.60;;;14.40;99.90;;;;;;5113849;28;20169;-48
2023/08/06 05:58:00;;;;;;;10.07;3.92;;;14.40;99.90;;;;;;5113698;28;20265;-47
2023/08/06 06:00:25;;;;;;;5.72;3.50;;;14.30;99.90;;;;;;5112477;28;20299;-50
2023/08/06 06:02:51;;;;;;;5.97;3.30;;;14.30;99.90;;;;;;5113140;28;20185;-47
2023/08/06 06:05:17;;;;;;;8.80;3.95;;;14.30;99.90;;;;;;5113212;28;20566;-49
2023/08/06 06:07:42;;;;;;;6.60;3.67;;;14.40;99.90;;;;;;5113413;28;20180;-50
2023/08/06 06:10:08;;;;;;;6.70;3.65;;;14.40;99.90;;;;;;5113579;28;20214;-50
2023/08/06 06:12:34;;;;;;;6.82;4.07;;;14.40;99.90;;;;;;5113464;28;20525;-48
2023/08/06 06:15:00;;;;;;;9.85;4.28;;;14.50;99.90;;;;;;5113302;28;20260;-51
2023/08/06 06:17:27;;;;;;;7.35;3.88;;;14.40;99.90;;;;;;5113396;28;20207;-50
2023/08/06 06:19:52;;;;;;;6.78;3.80;;;14.40;99.90;;;;;;5113337;28;20224;-51
2023/08/06 06:22:18;;;;;;;7.38;3.47;;;14.40;99.90;;;;;;5113005;28;20169;-52
2023/08/06 06:24:44;;;;;;;6.93;3.88;;;14.50;99.90;;;;;;5114940;28;20179;-48
2023/08/06 06:27:09;;;;;;;6.22;3.90;;;14.50;99.90;;;;;;5116824;28;20177;-51
2023/08/06 06:29:35;;;;;;;7.35;3.80;;;14.60;99.90;;;;;;5117337;28;20216;-48
2023/08/06 06:32:01;;;;;;;9.00;3.58;;;14.70;99.90;;;;;;5117325;28;20173;-47
2023/08/06 06:34:26;;;;;;;5.75;3.78;;;14.70;99.90;;;;;;5117230;28;20181;-50
2023/08/06 06:36:52;;;;;;;7.60;4.22;;;14.80;99.90;;;;;;5116587;28;20673;-52
2023/08/06 06:39:17;;;;;;;7.90;3.70;;;14.90;99.90;;;;;;5116846;28;20177;-49
2023/08/06 06:41:44;;;;;;;6.63;3.78;;;14.90;99.90;;;;;;5114394;28;20176;-48
2023/08/06 06:44:09;;;;;;;8.38;3.45;;;15.00;99.90;;;;;;5119836;27;20611;-47
2023/08/06 06:46:35;;;;;;;7.60;3.90;;;15.00;99.90;;;;;;5136062;27;20251;-52
2023/08/06 06:49:01;;;;;;;6.60;3.50;;;15.00;99.90;;;;;;5135836;27;20173;-48
2023/08/06 06:51:26;;;;;;;8.52;3.53;;;15.10;99.90;;;;;;5135848;27;20222;-49
2023/08/06 06:53:52;;;;;;;5.55;3.63;;;15.10;99.90;;;;;;5135736;27;20176;-49
2023/08/06 06:56:17;;;;;;;5.10;2.47;;;15.10;99.90;;;;;;5136715;27;20169;-53
2023/08/06 06:58:43;;;;;;;6.50;2.40;;;15.00;99.90;;;;;;5136752;27;20200;-48
2023/08/06 07:01:11;;;;;;;8.50;2.28;;;14.90;99.90;;;;;;5136698;27;20210;-51
2023/08/06 07:03:37;;;;;;;7.93;2.03;;;15.10;99.90;;;;;;5136675;27;20184;-50
2023/08/06 07:06:03;;;;;;;6.68;2.10;;;15.10;99.90;;;;;;5136763;27;20176;-50
2023/08/06 07:08:29;;;;;;;7.03;2.30;;;15.10;99.90;;;;;;5136644;27;20168;-51
2023/08/06 07:11:02;;;;;;;7.72;2.15;;;15.00;99.90;;;;;;5136352;27;20735;-47
2023/08/06 07:13:27;;;;;;;8.35;2.40;;;14.90;99.90;;;;;;5136764;27;20184;-50
2023/08/06 07:15:55;;;;;;;12.30;2.72;;;15.00;99.90;;;;;;5136804;27;20165;-47
2023/08/06 07:18:20;;;;;;;8.98;2.33;;;15.10;99.90;;;;;;5135914;27;20552;-52
2023/08/06 07:20:52;;;;;;;13.25;2.72;;;15.00;99.90;;;;;;5136439;27;20177;-50
2023/08/06 07:23:20;;;;;;;11.73;2.67;;;15.10;99.90;;;;;;5136433;27;20208;-51
2023/08/06 07:25:47;;;;;;;10.82;2.80;;;15.10;99.90;;;;;;5136617;27;20537;-51
2023/08/06 07:28:13;;;;;;;8.60;2.40;;;15.10;99.90;;;;;;5136204;27;20168;-51
2023/08/06 07:30:40;;;;;;;11.38;2.63;;;15.10;99.90;;;;;;5136216;27;20173;-51
2023/08/06 07:33:06;;;;;;;8.60;2.17;;;15.20;99.90;;;;;;5136266;27;20223;-53
2023/08/06 07:35:32;;;;;;;9.50;2.25;;;15.20;99.90;;;;;;5135693;27;20592;-52
2023/08/06 07:37:57;;;;;;;9.88;2.50;;;15.20;99.90;;;;;;5135563;27;20196;-48
2023/08/06 07:40:23;;;;;;;8.27;2.08;;;15.20;99.90;;;;;;5135996;27;20176;-52
2023/08/06 07:42:49;;;;;;;9.40;2.20;;;15.20;99.90;;;;;;5136086;27;20297;-52
2023/08/06 07:45:14;;;;;;;4.93;1.80;;;15.20;99.90;;;;;;5135895;27;20589;-51
2023/08/06 07:47:40;;;;;;;7.45;2.15;;;15.30;99.90;;;;;;5135741;27;20169;-48
2023/08/06 07:50:06;;;;;;;6.93;2.17;;;15.30;99.90;;;;;;5135944;27;20502;-48
2023/08/06 07:52:32;;;;;;;8.43;1.95;;;15.30;99.90;;;;;;5135725;27;20204;-48
2023/08/06 07:54:58;;;;;;;5.70;2.17;;;15.20;99.90;;;;;;5135924;27;20208;-50
2023/08/06 07:57:24;;;;;;;5.72;2.00;;;15.10;99.90;;;;;;5135765;27;20530;-51
2023/08/06 07:59:50;;;;;;;4.85;1.83;;;15.20;99.90;;;;;;5135790;27;20180;-52
2023/08/06 08:02:16;;;;;;;7.53;1.60;;;15.30;99.90;;;;;;5120587;27;20508;-52
2023/08/06 08:04:41;;;;;;;7.07;2.10;;;15.30;99.90;;;;;;5113402;28;20196;-50
2023/08/06 08:07:09;;;;;;;6.60;2.15;;;15.30;99.90;;;;;;5115072;28;20534;-51
2023/08/06 08:09:35;;;;;;;10.55;1.83;;;15.40;99.90;;;;;;5115373;28;20607;-51
2023/08/06 08:12:02;;;;;;;10.95;2.00;;;15.50;99.90;;;;;;5114780;28;20634;-51
2023/08/06 08:14:28;;;;;;;6.20;2.05;;;15.50;99.90;;;;;;5114725;28;20617;-54
2023/08/06 08:16:55;;;;;;;7.55;2.00;;;15.60;99.90;;;;;;5114774;28;20201;-49
2023/08/06 08:19:21;;;;;;;8.77;2.13;;;15.50;99.90;;;;;;5114648;28;20216;-50
2023/08/06 08:21:46;;;;;;;7.93;2.42;;;15.50;99.90;;;;;;5114718;28;20188;-52
2023/08/06 08:24:12;;;;;;;7.57;2.33;;;15.50;99.90;;;;;;5114842;28;20236;-54
2023/08/06 08:26:38;;;;;;;8.95;2.30;;;15.50;99.90;;;;;;5114740;28;20219;-50
2023/08/06 08:29:03;;;;;;;8.60;2.33;;;15.50;99.90;;;;;;5114361;28;20177;-53
2023/08/06 08:31:29;;;;;;;6.45;2.60;;;15.50;99.90;;;;;;5114457;28;20636;-51
2023/08/06 08:33:55;;;;;;;9.63;3.03;;;15.50;99.90;;;;;;5114466;28;20590;-52
2023/08/06 08:36:21;;;;;;;8.52;2.10;;;15.50;99.90;;;;;;5113050;28;20186;-51
2023/08/06 08:38:46;;;;;;;8.10;2.33;;;15.60;99.90;;;;;;5114290;28;20479;-48
2023/08/06 08:41:12;;;;;;;10.15;2.40;;;15.50;99.90;;;;;;5114216;28;20238;-52
2023/08/06 08:43:39;;;;;;;7.35;2.40;;;15.40;99.90;;;;;;5113917;28;20603;-49
2023/08/06 08:46:08;;;;;;;8.02;2.40;;;15.40;99.90;;;;;;5114093;28;20398;-50
2023/08/06 08:48:34;;;;;;;5.97;2.05;;;15.40;99.90;;;;;;5113933;28;20234;-52
2023/08/06 08:51:00;;;;;;;9.18;2.47;;;15.30;99.90;;;;;;5113945;28;20253;-52
2023/08/06 08:53:27;;;;;;;7.65;2.40;;;15.50;99.90;;;;;;5113924;28;20578;-52
2023/08/06 08:55:54;;;;;;;9.25;2.33;;;15.50;99.90;;;;;;5112608;28;20177;-50
2023/08/06 08:58:20;;;;;;;11.13;2.60;;;15.50;99.90;;;;;;5113714;28;20220;-50
2023/08/06 09:00:49;;;;;;;6.78;2.50;;;15.60;99.90;;;;;;5113593;28;20173;-51
2023/08/06 09:03:16;;;;;;;6.95;2.47;;;15.60;99.90;;;;;;5113725;28;20252;-52
2023/08/06 09:05:45;;;;;;;4.90;1.80;;;15.70;99.90;;;;;;5112512;28;20643;-55
2023/08/06 09:08:16;;;;;;;12.15;2.78;;;15.70;99.90;;;;;;5113721;28;20838;-52
2023/08/06 09:10:43;;;;;;;9.10;2.20;;;15.70;99.90;;;;;;5113747;28;20153;-51
2023/08/06 09:13:09;;;;;;;8.30;2.25;;;15.70;99.90;;;;;;5113589;28;20503;-49
2023/08/06 09:15:34;;;;;;;8.68;2.30;;;15.80;99.90;;;;;;5113587;28;20188;-52
2023/08/06 09:18:08;;;;;;;8.02;2.70;;;15.70;99.90;;;;;;5113466;28;20209;-47
2023/08/06 09:20:34;;;;;;;6.82;2.15;;;15.80;99.90;;;;;;5113712;28;20221;-48
2023/08/06 09:23:08;;;;;;;7.70;2.33;;;15.70;99.90;;;;;;5113330;28;20184;-50
2023/08/06 09:25:35;;;;;;;11.13;3.08;;;15.80;99.90;;;;;;5113413;28;20172;-49
2023/08/06 09:28:02;;;;;;;8.75;2.47;;;15.70;99.90;;;;;;5113290;28;20173;-51
2023/08/06 09:30:33;;;;;;;10.40;2.97;;;15.70;99.90;;;;;;5112051;28;20655;-52
2023/08/06 09:32:59;;;;;;;7.13;2.70;;;15.80;99.90;;;;;;5113308;28;20173;-52
2023/08/06 09:35:24;;;;;;;9.60;2.60;;;15.80;99.90;;;;;;5113464;28;20534;-48
2023/08/06 09:37:50;;;;;;;9.70;2.53;;;15.80;99.90;;;;;;5113221;28;20200;-52
2023/08/06 09:40:26;;;;;;;12.00;2.90;;;15.70;99.90;;;;;;5113636;28;20177;-49
2023/08/06 09:42:52;;;;;;;8.10;2.20;;;15.60;99.90;;;;;;5113260;28;20226;-52
2023/08/06 09:45:18;;;;;;;7.00;2.22;;;15.60;99.90;;;;;;5113103;28;20169;-48
2023/08/06 09:47:43;;;;;;;6.97;2.42;;;15.60;99.90;;;;;;5113163;28;20714;-50
2023/08/06 09:50:19;;;;;;;12.77;2.65;;;15.50;99.90;;;;;;5113175;28;20607;-53
2023/08/06 09:52:47;;;;;;;8.93;2.40;;;15.50;99.90;;;;;;5113186;28;20157;-50
2023/08/06 09:55:14;;;;;;;11.98;2.72;;;15.60;99.90;;;;;;5113048;28;20181;-50
2023/08/06 09:57:41;;;;;;;11.60;2.47;;;15.60;99.90;;;;;;5112897;28;20236;-52
2023/08/06 10:00:09;;;;;;;8.52;2.30;;;15.50;99.90;;;;;;5115248;28;20180;-52
2023/08/06 10:02:37;;;;;;;8.50;2.45;;;15.50;99.90;;;;;;5117203;28;20175;-52
2023/08/06 10:05:03;;;;;;;10.18;2.85;;;15.50;99.90;;;;;;5117444;28;20674;-48
2023/08/06 10:07:30;;;;;;;8.45;2.15;;;15.40;99.90;;;;;;5117219;28;20204;-49
2023/08/06 10:09:56;;;;;;;9.32;2.28;;;15.40;99.90;;;;;;5115942;28;20222;-49
2023/08/06 10:12:24;;;;;;;9.05;2.17;;;15.40;99.90;;;;;;5117084;27;20169;-49
2023/08/06 10:14:54;;;;;;;8.20;2.25;;;15.30;99.90;;;;;;5115759;28;20173;-49
2023/08/06 10:17:21;;;;;;;8.73;2.22;;;15.20;99.90;;;;;;5116923;28;20193;-50
2023/08/06 10:19:49;;;;;;;6.82;2.00;;;15.20;99.90;;;;;;5116771;28;20224;-50
2023/08/06 10:22:17;;;;;;;7.20;2.10;;;15.20;99.90;;;;;;5116898;28;20172;-51
2023/08/06 10:25:04;;;;;;;7.82;2.33;;;15.20;99.90;;;;;;5116824;28;20170;-51
2023/08/06 10:27:54;;;;;;;9.10;2.03;;;15.20;99.90;;;;;;5116778;28;20158;-51
2023/08/06 10:30:27;;;;;;;7.93;2.00;;;15.30;99.90;;;;;;5116797;28;20189;-49
2023/08/06 10:33:00;;;;;;;4.15;2.10;;;15.30;99.90;;;;;;5116313;28;20571;-52
2023/08/06 10:35:31;;;;;;;7.63;1.73;;;15.30;99.90;;;;;;5116749;28;20691;-49
2023/08/06 10:38:10;;;;;;;5.72;1.70;;;15.30;99.90;;;;;;5133915;27;20208;-52
2023/08/06 10:40:39;;;;;;;5.30;1.80;;;15.20;99.90;;;;;;5137367;27;20241;-49
2023/08/06 10:43:10;;;;;;;7.68;2.22;;;15.20;99.90;;;;;;5137111;27;20187;-53
2023/08/06 10:45:37;;;;;;;6.22;1.80;;;15.20;99.90;;;;;;5137066;27;20161;-48
2023/08/06 10:48:04;;;;;;;7.85;1.98;;;15.20;99.90;;;;;;5137189;27;20466;-53
2023/08/06 10:50:31;;;;;;;8.07;2.17;;;15.20;99.90;;;;;;5136894;27;20164;-49
2023/08/06 10:52:57;;;;;;;7.82;2.13;;;15.40;99.90;;;;;;5136827;27;20180;-50
2023/08/06 10:55:27;;;;;;;6.97;1.80;;;15.20;99.90;;;;;;5136852;27;20165;-52
2023/08/06 10:57:54;;;;;;;6.05;1.90;;;15.20;99.90;;;;;;5136642;27;20595;-49
2023/08/06 11:00:22;;;;;;;3.90;1.70;;;15.20;99.90;;;;;;5136804;27;20238;-49
2023/08/06 11:02:51;;;;;;;6.80;1.98;;;15.30;99.90;;;;;;5136681;27;20225;-52
2023/08/06 11:05:17;;;;;;;5.05;1.90;;;15.30;99.90;;;;;;5136406;27;20168;-48
2023/08/06 11:07:43;;;;;;;6.00;1.92;;;15.30;99.90;;;;;;5136615;27;20202;-52
2023/08/06 11:10:10;;;;;;;7.28;1.90;;;15.20;99.90;;;;;;5136153;27;20258;-50
2023/08/06 11:12:36;;;;;;;4.82;1.73;;;15.10;99.90;;;;;;5135641;27;20172;-53
2023/08/06 11:15:03;;;;;;;5.80;2.00;;;15.00;99.90;;;;;;5136494;27;20574;-48
2023/08/06 11:17:30;;;;;;;4.53;1.65;;;15.00;99.90;;;;;;5136142;27;20676;-52
2023/08/06 11:19:58;;;;;;;6.72;1.67;;;15.10;99.90;;;;;;5134959;27;20235;-51
2023/08/06 11:22:24;;;;;;;8.70;2.05;;;15.10;99.90;;;;;;5136308;27;20630;-51
2023/08/06 11:24:50;;;;;;;8.18;2.42;;;15.10;99.90;;;;;;5136296;27;20173;-49
2023/08/06 11:27:17;;;;;;;5.97;2.25;;;15.10;99.90;;;;;;5136233;27;20572;-51
2023/08/06 11:29:43;;;;;;;8.55;2.13;;;15.20;99.90;;;;;;5136120;27;20173;-52
2023/08/06 11:32:10;;;;;;;6.93;2.20;;;15.30;99.90;;;;;;5136148;27;20173;-50
2023/08/06 11:34:36;;;;;;;9.05;2.03;;;15.40;99.90;;;;;;5136091;27;20181;-53
2023/08/06 11:37:05;;;;;;;6.80;1.80;;;15.50;99.90;;;;;;5135939;27;20216;-51
2023/08/06 11:39:35;;;;;;;6.38;2.22;;;15.60;99.90;;;;;;5136017;27;20174;-52
2023/08/06 11:42:04;;;;;;;8.18;2.20;;;15.70;99.90;;;;;;5135933;27;20161;-49
2023/08/06 11:44:34;;;;;;;7.22;2.28;;;15.70;99.90;;;;;;5135811;27;20228;-49
2023/08/06 11:47:01;;;;;;;7.88;2.70;;;15.70;99.90;;;;;;5135799;27;20222;-53
2023/08/06 11:49:47;;;;;;;7.43;2.47;;;15.60;99.90;;;;;;5135789;27;20592;-53
2023/08/06 11:52:22;;;;;;;7.15;2.03;;;15.50;99.90;;;;;;5136134;27;20208;-49
2023/08/06 11:55:01;;;;;;;8.32;2.40;;;15.50;99.90;;;;;;5136559;27;20235;-50
2023/08/06 11:57:28;;;;;;;6.47;2.58;;;15.50;99.90;;;;;;5136347;27;20264;-53
2023/08/06 11:59:54;;;;;;;5.72;1.85;;;15.50;99.90;;;;;;5136441;27;20169;-51
2023/08/06 12:02:23;;;;;;;5.07;2.35;;;15.50;99.90;;;;;;5136333;27;20179;-50
2023/08/06 12:05:04;;;;;;;7.60;2.30;;;15.40;99.90;;;;;;5117237;27;20181;-51
2023/08/06 12:07:36;;;;;;;6.10;2.40;;;15.30;99.90;;;;;;5115737;28;20251;-51
2023/08/06 12:10:02;;;;;;;8.63;2.00;;;15.30;99.90;;;;;;5115738;28;20218;-49
2023/08/06 12:12:27;;;;;;;8.20;2.08;;;15.20;99.90;;;;;;5115939;28;20544;-51
2023/08/06 12:14:54;;;;;;;10.38;2.67;;;15.20;99.90;;;;;;5115645;28;20169;-51
2023/08/06 12:17:20;;;;;;;5.70;2.17;;;15.20;99.90;;;;;;5115496;28;20285;-53
2023/08/06 12:19:47;;;;;;;6.90;2.40;;;15.30;99.90;;;;;;5115461;28;20252;-50
2023/08/06 12:22:13;;;;;;;9.23;2.80;;;15.30;99.90;;;;;;5115071;28;20195;-52
2023/08/06 12:24:42;;;;;;;7.60;2.30;;;15.40;99.90;;;;;;5115386;28;20161;-48
2023/08/06 12:27:09;;;;;;;7.80;2.40;;;15.40;99.90;;;;;;5115309;28;20181;-51
2023/08/06 12:29:35;;;;;;;8.40;2.72;;;15.30;99.90;;;;;;5115340;28;20173;-49
2023/08/06 12:32:01;;;;;;;9.15;2.80;;;15.30;99.90;;;;;;5115204;28;20200;-53
2023/08/06 12:34:27;;;;;;;8.68;2.42;;;15.30;99.90;;;;;;5115188;28;20205;-50
2023/08/06 12:36:53;;;;;;;5.55;2.40;;;15.20;99.90;;;;;;5115086;28;20193;-48
2023/08/06 12:39:18;;;;;;;10.05;2.90;;;15.20;99.90;;;;;;5115100;28;20606;-48
2023/08/06 12:41:45;;;;;;;12.27;3.22;;;15.20;99.90;;;;;;5115150;28;20158;-48
2023/08/06 12:44:12;;;;;;;10.52;2.75;;;15.30;99.90;;;;;;5115014;28;20242;-51